createdAt,value
2023-03-17T00:02:37.008Z,94760.00
2023-03-17T00:06:36.922Z,94754.00
2023-03-17T00:10:36.892Z,94756.00
2023-03-17T00:14:36.826Z,94752.00
2023-03-17T00:18:36.792Z,94746.00
2023-03-17T00:22:36.773Z,94744.00
2023-03-17T00:26:36.876Z,94730.00
2023-03-17T00:30:37.142Z,94730.00
2023-03-17T00:34:37.301Z,94724.00
2023-03-17T00:38:37.618Z,94724.00
2023-03-17T00:42:37.755Z,94715.00
2023-03-17T00:46:38.263Z,94715.00
2023-03-17T00:50:38.141Z,94718.00
2023-03-17T00:54:38.116Z,94711.00
2023-03-17T00:58:38.094Z,94711.00
2023-03-17T01:02:38.053Z,94711.00
2023-03-17T01:06:38.012Z,94716.00
2023-03-17T01:10:37.967Z,94718.00
2023-03-17T01:14:38.183Z,94713.00
2023-03-17T01:18:37.994Z,94711.00
2023-03-17T01:22:37.877Z,94705.00
2023-03-17T01:26:37.848Z,94701.00
2023-03-17T01:30:37.823Z,94699.00
2023-03-17T01:34:37.799Z,94699.00
2023-03-17T01:38:37.784Z,94697.00
2023-03-17T01:42:37.684Z,94699.00
2023-03-17T01:46:37.663Z,94689.00
2023-03-17T01:50:37.627Z,94685.00
2023-03-17T01:54:37.611Z,94687.00
2023-03-17T01:58:37.578Z,94683.00
2023-03-17T02:02:37.517Z,94685.00
2023-03-17T02:06:47.472Z,94681.00
2023-03-17T02:10:38.473Z,94681.00
2023-03-17T02:14:38.039Z,94681.00
2023-03-17T02:18:37.432Z,94675.00
2023-03-17T02:22:37.403Z,94675.00
2023-03-17T02:26:37.377Z,94675.00
2023-03-17T02:30:37.355Z,94679.00
2023-03-17T02:34:37.309Z,94677.00
2023-03-17T02:38:37.260Z,94675.00
2023-03-17T02:42:37.240Z,94679.00
2023-03-17T02:46:37.238Z,94679.00
2023-03-17T02:50:37.186Z,94679.00
2023-03-17T02:54:37.245Z,94683.00
2023-03-17T02:58:37.198Z,94681.00
2023-03-17T03:02:37.167Z,94683.00
2023-03-17T03:06:37.109Z,94677.00
2023-03-17T03:10:37.074Z,94671.00
2023-03-17T03:14:37.057Z,94667.00
2023-03-17T03:18:37.017Z,94671.00
2023-03-17T03:22:37.112Z,94673.00
2023-03-17T03:26:36.963Z,94671.00
2023-03-17T03:30:36.906Z,94671.00
2023-03-17T03:34:37.056Z,94669.00
2023-03-17T03:38:37.052Z,94669.00
2023-03-17T03:42:36.995Z,94673.00
2023-03-17T03:46:37.052Z,94677.00
2023-03-17T03:50:36.954Z,94677.00
2023-03-17T03:54:36.879Z,94677.00
2023-03-17T03:58:37.085Z,94681.00
2023-03-17T04:02:36.876Z,94679.00
2023-03-17T04:06:36.757Z,94679.00
2023-03-17T04:10:36.732Z,94675.00
2023-03-17T04:14:36.704Z,94675.00
2023-03-17T04:18:36.928Z,94673.00
2023-03-17T04:22:36.957Z,94663.00
2023-03-17T04:26:37.194Z,94654.00
2023-03-17T04:30:37.343Z,94646.00
2023-03-17T04:34:37.545Z,94650.00
2023-03-17T04:38:37.533Z,94654.00
2023-03-17T04:42:37.635Z,94638.00
2023-03-17T04:46:37.464Z,94636.00
2023-03-17T04:50:37.378Z,94654.00
2023-03-17T04:54:37.408Z,94646.00
2023-03-17T04:58:37.382Z,94646.00
2023-03-17T05:02:37.278Z,94646.00
2023-03-17T05:06:37.244Z,94646.00
2023-03-17T05:10:37.233Z,94632.00
2023-03-17T05:14:37.258Z,94630.00
2023-03-17T05:18:37.189Z,94628.00
2023-03-17T05:22:37.121Z,94630.00
2023-03-17T05:26:37.091Z,94624.00
2023-03-17T05:30:37.086Z,94630.00
2023-03-17T05:34:37.021Z,94634.00
2023-03-17T05:38:36.992Z,94638.00
2023-03-17T05:42:36.970Z,94638.00
2023-03-17T05:46:37.010Z,94636.00
2023-03-17T05:50:36.956Z,94636.00
2023-03-17T05:54:36.985Z,94630.00
2023-03-17T05:58:37.163Z,94632.00
2023-03-17T06:02:37.422Z,94632.00
2023-03-17T06:06:37.620Z,94626.00
2023-03-17T06:10:37.805Z,94628.00
2023-03-17T06:14:38.036Z,94630.00
2023-03-17T06:18:38.199Z,94632.00
2023-03-17T06:22:46.272Z,94634.00
2023-03-17T06:26:39.661Z,94632.00
2023-03-17T06:30:40.614Z,94636.00
2023-03-17T06:34:38.544Z,94634.00
2023-03-17T06:38:39.361Z,94628.00
2023-03-17T06:42:38.315Z,94622.00
2023-03-17T06:46:38.314Z,94620.00
2023-03-17T06:50:38.212Z,94618.00
2023-03-17T06:54:38.218Z,94624.00
2023-03-17T06:58:38.271Z,94626.00
2023-03-17T07:02:38.762Z,94622.00
2023-03-17T07:06:38.014Z,94620.00
2023-03-17T07:10:38.452Z,94615.00
2023-03-17T07:14:38.263Z,94618.00
2023-03-17T07:18:38.071Z,94618.00
2023-03-17T07:22:38.120Z,94620.00
2023-03-17T07:26:37.986Z,94620.00
2023-03-17T07:30:38.827Z,94622.00
2023-03-17T07:34:38.396Z,94620.00
2023-03-17T07:38:38.406Z,94616.00
2023-03-17T07:42:38.341Z,94609.00
2023-03-17T07:46:38.247Z,94607.00
2023-03-17T07:50:38.443Z,94603.00
2023-03-17T07:54:38.689Z,94607.00
2023-03-17T07:58:38.804Z,94611.00
2023-03-17T08:02:38.324Z,94605.00
2023-03-17T08:06:38.032Z,94597.00
2023-03-17T08:10:38.200Z,94595.00
2023-03-17T08:14:38.014Z,94589.00
2023-03-17T08:18:37.951Z,94583.00
2023-03-17T08:22:38.009Z,94583.00
2023-03-17T08:26:38.241Z,94583.00
2023-03-17T08:30:39.189Z,94575.00
2023-03-17T08:34:38.140Z,94571.00
2023-03-17T08:38:38.122Z,94560.00
2023-03-17T08:42:38.393Z,94558.00
2023-03-17T08:46:37.972Z,94552.00
2023-03-17T08:50:37.946Z,94544.00
2023-03-17T08:54:37.973Z,94544.00
2023-03-17T08:58:37.932Z,94534.00
2023-03-17T09:02:40.760Z,94532.00
2023-03-17T09:06:38.797Z,94522.00
2023-03-17T09:10:37.796Z,94513.00
2023-03-17T09:14:43.740Z,94505.00
2023-03-17T09:18:38.752Z,94499.00
2023-03-17T09:22:37.672Z,94489.00
2023-03-17T09:26:38.870Z,94487.00
2023-03-17T09:30:38.074Z,94483.00
2023-03-17T09:34:38.148Z,94483.00
2023-03-17T09:38:38.233Z,94483.00
2023-03-17T09:42:38.172Z,94481.00
2023-03-17T09:46:38.281Z,94477.00
2023-03-17T09:50:38.196Z,94472.00
2023-03-17T09:54:38.199Z,94468.00
2023-03-17T09:58:38.744Z,94460.00
2023-03-17T10:02:38.132Z,94450.00
2023-03-17T10:06:38.226Z,94446.00
2023-03-17T10:10:38.092Z,94436.00
2023-03-17T10:14:38.165Z,94432.00
2023-03-17T10:18:38.349Z,94426.00
2023-03-17T10:22:38.374Z,94420.00
2023-03-17T10:26:38.485Z,94415.00
2023-03-17T10:30:39.634Z,94403.00
2023-03-17T10:34:39.448Z,94399.00
2023-03-17T10:38:39.144Z,94393.00
2023-03-17T10:42:39.010Z,94375.00
2023-03-17T10:46:39.071Z,94368.00
2023-03-17T10:50:38.961Z,94360.00
2023-03-17T10:54:39.304Z,94354.00
2023-03-17T10:58:39.064Z,94346.00
2023-03-17T11:02:38.818Z,94342.00
2023-03-17T11:06:38.786Z,94338.00
2023-03-17T11:10:38.713Z,94334.00
2023-03-17T11:14:38.680Z,94323.00
2023-03-17T11:18:38.739Z,94313.00
2023-03-17T11:22:38.675Z,94307.00
2023-03-17T11:26:38.925Z,94297.00
2023-03-17T11:30:38.862Z,94287.00
2023-03-17T11:34:39.795Z,94281.00
2023-03-17T11:38:38.773Z,94274.00
2023-03-17T11:42:38.754Z,94272.00
2023-03-17T11:46:38.837Z,94272.00
2023-03-17T11:50:38.876Z,94266.00
2023-03-17T11:54:38.700Z,94258.00
2023-03-17T11:58:38.901Z,94254.00
2023-03-17T12:02:38.908Z,94246.00
2023-03-17T12:06:38.838Z,94242.00
2023-03-17T12:10:38.776Z,94240.00
2023-03-17T12:14:38.672Z,94234.00
2023-03-17T12:18:38.691Z,94229.00
2023-03-17T12:22:38.608Z,94221.00
2023-03-17T12:26:38.643Z,94217.00
2023-03-17T12:30:38.653Z,94209.00
2023-03-17T12:34:38.538Z,94199.00
2023-03-17T12:38:38.636Z,94195.00
2023-03-17T12:42:38.643Z,94191.00
2023-03-17T12:46:38.595Z,94189.00
2023-03-17T12:50:38.600Z,94187.00
2023-03-17T12:54:38.553Z,94178.00
2023-03-17T12:58:38.447Z,94176.00
2023-03-17T13:02:38.423Z,94172.00
2023-03-17T13:06:38.361Z,94172.00
2023-03-17T13:10:38.360Z,94160.00
2023-03-17T13:14:38.310Z,94154.00
2023-03-17T13:18:38.268Z,94150.00
2023-03-17T13:22:38.295Z,94144.00
2023-03-17T13:26:38.223Z,94142.00
2023-03-17T13:30:38.139Z,94136.00
2023-03-17T13:34:38.105Z,94125.00
2023-03-17T13:38:38.342Z,94117.00
2023-03-17T13:42:38.150Z,94115.00
2023-03-17T13:46:38.330Z,94113.00
2023-03-17T13:50:38.182Z,94107.00
2023-03-17T13:54:38.137Z,94099.00
2023-03-17T13:58:38.205Z,94095.00
2023-03-17T14:02:38.936Z,94095.00
2023-03-17T14:06:38.096Z,94095.00
2023-03-17T14:10:38.063Z,94095.00
2023-03-17T14:14:38.034Z,94091.00
2023-03-17T14:18:38.091Z,94087.00
2023-03-17T14:22:38.049Z,94080.00
2023-03-17T14:26:38.036Z,94074.00
2023-03-17T14:30:37.943Z,94068.00
2023-03-17T14:34:37.952Z,94068.00
2023-03-17T14:38:37.951Z,94066.00
2023-03-17T14:42:37.916Z,94066.00
2023-03-17T14:46:38.000Z,94054.00
2023-03-17T14:50:37.942Z,94058.00
2023-03-17T14:54:37.941Z,94058.00
2023-03-17T14:58:37.938Z,94048.00
2023-03-17T15:02:38.139Z,94044.00
2023-03-17T15:06:38.865Z,94042.00
2023-03-17T15:10:38.055Z,94042.00
2023-03-17T15:14:38.044Z,94042.00
2023-03-17T15:18:38.204Z,94042.00
2023-03-17T15:22:38.175Z,94040.00
2023-03-17T15:26:38.240Z,94035.00
2023-03-17T15:30:47.061Z,94035.00
2023-03-17T15:34:39.118Z,94035.00
2023-03-17T15:38:38.441Z,94031.00
2023-03-17T15:42:38.008Z,94037.00
2023-03-17T15:46:38.001Z,94033.00
2023-03-17T15:50:37.950Z,94033.00
2023-03-17T15:54:37.935Z,94035.00
2023-03-17T15:58:37.940Z,94046.00
2023-03-17T16:02:37.914Z,94044.00
2023-03-17T16:06:37.869Z,94039.00
2023-03-17T16:10:37.909Z,94035.00
2023-03-17T16:14:37.979Z,94040.00
2023-03-17T16:18:38.000Z,94042.00
2023-03-17T16:22:38.107Z,94039.00
2023-03-17T16:26:38.332Z,94046.00
2023-03-17T16:30:38.240Z,94050.00
2023-03-17T16:34:38.271Z,94048.00
2023-03-17T16:38:38.345Z,94046.00
2023-03-17T16:42:38.427Z,94058.00
2023-03-17T16:46:38.480Z,94062.00
2023-03-17T16:50:38.601Z,94070.00
2023-03-17T16:54:38.666Z,94070.00
2023-03-17T16:58:38.736Z,94084.00
2023-03-17T17:02:38.943Z,94093.00
2023-03-17T17:06:38.984Z,94082.00
2023-03-17T17:10:39.031Z,94097.00
2023-03-17T17:14:39.124Z,94095.00
2023-03-17T17:18:39.289Z,94097.00
2023-03-17T17:22:39.290Z,94091.00
2023-03-17T17:26:39.450Z,94097.00
2023-03-17T17:30:39.506Z,94105.00
2023-03-17T17:34:39.646Z,94103.00
2023-03-17T17:38:39.790Z,94103.00
2023-03-17T17:42:39.850Z,94097.00
2023-03-17T17:46:40.009Z,94107.00
2023-03-17T17:50:40.100Z,94109.00
2023-03-17T17:54:40.262Z,94109.00
2023-03-17T17:58:40.445Z,94107.00
2023-03-17T18:02:40.537Z,94115.00
2023-03-17T18:06:40.709Z,94119.00
2023-03-17T18:10:40.787Z,94109.00
2023-03-17T18:14:40.984Z,94113.00
2023-03-17T18:18:41.132Z,94125.00
2023-03-17T18:22:41.217Z,94125.00
2023-03-17T18:26:41.383Z,94132.00
2023-03-17T18:30:42.408Z,94146.00
2023-03-17T18:34:41.659Z,94150.00
2023-03-17T18:38:41.833Z,94150.00
2023-03-17T18:42:42.086Z,94152.00
2023-03-17T18:46:42.207Z,94156.00
2023-03-17T18:50:44.961Z,94166.00
2023-03-17T18:54:42.236Z,94160.00
2023-03-17T18:58:42.291Z,94170.00
2023-03-17T19:02:42.188Z,94172.00
2023-03-17T19:06:42.169Z,94174.00
2023-03-17T19:10:42.508Z,94179.00
2023-03-17T19:14:42.069Z,94187.00
2023-03-17T19:18:42.388Z,94179.00
2023-03-17T19:22:42.514Z,94183.00
2023-03-17T19:26:42.009Z,94174.00
2023-03-17T19:30:41.899Z,94179.00
2023-03-17T19:34:41.911Z,94185.00
2023-03-17T19:38:41.852Z,94179.00
2023-03-17T19:42:41.866Z,94187.00
2023-03-17T19:46:42.076Z,94195.00
2023-03-17T19:50:42.229Z,94201.00
2023-03-17T19:54:42.408Z,94205.00
2023-03-17T19:58:42.534Z,94201.00
2023-03-17T20:02:42.778Z,94205.00
2023-03-17T20:06:42.956Z,94209.00
2023-03-17T20:10:43.138Z,94211.00
2023-03-17T20:14:43.290Z,94209.00
2023-03-17T20:18:43.430Z,94213.00
2023-03-17T20:22:43.655Z,94211.00
2023-03-17T20:26:43.849Z,94215.00
2023-03-17T20:30:44.022Z,94211.00
2023-03-17T20:34:44.175Z,94223.00
2023-03-17T20:38:44.460Z,94219.00
2023-03-17T20:42:44.594Z,94219.00
2023-03-17T20:46:44.887Z,94213.00
2023-03-17T20:50:45.027Z,94215.00
2023-03-17T20:54:45.511Z,94217.00
2023-03-17T20:58:45.449Z,94223.00
2023-03-17T21:02:45.780Z,94231.00
2023-03-17T21:06:45.851Z,94231.00
2023-03-17T21:10:46.058Z,94233.00
2023-03-17T21:14:46.266Z,94233.00
2023-03-17T21:18:46.477Z,94236.00
2023-03-17T21:22:47.039Z,94240.00
2023-03-17T21:26:46.885Z,94244.00
2023-03-17T21:30:47.105Z,94246.00
2023-03-17T21:34:47.333Z,94248.00
2023-03-17T21:38:47.563Z,94246.00
2023-03-17T21:42:47.846Z,94244.00
2023-03-17T21:46:48.096Z,94248.00
2023-03-17T21:50:47.814Z,94252.00
2023-03-17T21:54:47.656Z,94256.00
2023-03-17T21:58:47.624Z,94258.00
2023-03-17T22:02:47.632Z,94260.00
2023-03-17T22:06:47.568Z,94266.00
2023-03-17T22:10:47.558Z,94270.00
2023-03-17T22:14:47.467Z,94272.00
2023-03-17T22:18:47.498Z,94272.00
2023-03-17T22:22:47.417Z,94276.00
2023-03-17T22:26:47.436Z,94280.00
2023-03-17T22:30:47.360Z,94285.00
2023-03-17T22:34:47.348Z,94281.00
2023-03-17T22:38:47.295Z,94278.00
2023-03-17T22:42:47.354Z,94276.00
2023-03-17T22:46:47.258Z,94281.00
2023-03-17T22:50:47.204Z,94285.00
2023-03-17T22:54:47.137Z,94291.00
2023-03-17T22:58:48.034Z,94295.00
2023-03-17T23:02:47.288Z,94297.00
2023-03-17T23:06:47.583Z,94301.00
2023-03-17T23:10:47.240Z,94305.00
2023-03-17T23:14:47.260Z,94305.00
2023-03-17T23:18:47.232Z,94311.00
2023-03-17T23:22:47.166Z,94317.00
2023-03-17T23:26:47.150Z,94323.00
2023-03-17T23:30:47.076Z,94323.00
2023-03-17T23:34:47.028Z,94321.00
2023-03-17T23:38:47.003Z,94321.00
2023-03-17T23:42:47.062Z,94319.00
2023-03-17T23:46:46.999Z,94327.00
2023-03-17T23:50:46.953Z,94334.00
2023-03-17T23:54:46.931Z,94342.00
2023-03-17T23:58:46.857Z,94344.00
